Latest Weather Observations for Hobart

IDT60901

Issued at 8:41 pm EST Tuesday 28 July 2015 (issued every 10 minutes, with the page automatically refreshed every 10 minutes)

About weather observations | Map of Hobart area stations | Latest observations for Hobart area | Other Formats
Station Details ID: 094029 Name: HOBART (ELLERSLIE ROAD) Lat: -42.89 Lon: 147.33 Height: 50.5 m
Data from the previous 72 hours. | See also: Recent months at Hobart
Date/Time
EST
Tmp

°C
App
Tmp
°C
Dew
Point
°C
Rel
Hum
%
Delta-T

°C
Wind Press
QNH
hPa
Press
MSL
hPa
Rain
since
9 am
mm
Dir
 
Spd
km/h
Gust
km/h
Spd
kts
Gust
kts
28/08:30pm 9.4 7.3 5.7 78 1.7 W 6 11 3 6 1026.6 1026.8 0.0
28/08:00pm 9.8 6.3 5.6 75 1.9 WSW 13 17 7 9 1026.5 1026.7 0.0
28/07:30pm 10.9 8.6 5.7 70 2.4 NW 7 11 4 6 1026.3 1026.5 0.0
28/07:00pm 11.4 9.3 5.8 68 2.6 SSE 6 13 3 7 1026.3 1026.5 0.0
28/06:30pm 11.6 9.5 6.0 68 2.6 S 6 9 3 5 1025.9 1026.1 0.0
28/06:00pm 12.2 9.2 6.0 66 2.9 NNW 11 19 6 10 1025.7 1025.9 0.0
28/05:30pm 12.6 9.6 6.2 65 3.0 NE 11 15 6 8 1025.5 1025.7 0.0
28/05:00pm 13.3 11.1 5.4 59 3.7 E 6 13 3 7 1025.3 1025.5 0.0
28/04:30pm 13.7 11.1 6.1 60 3.6 NNW 9 17 5 9 1024.9 1025.1 0.0
28/04:00pm 13.7 11.1 6.1 60 3.6 NE 9 13 5 7 1024.7 1024.9 0.0
28/03:30pm 14.0 11.7 5.7 57 3.9 ENE 7 13 4 7 1024.4 1024.5 0.0
28/03:00pm 14.1 11.0 5.6 56 4.0 E 11 15 6 8 1024.2 1024.3 0.0
28/02:30pm 14.4 12.0 4.4 51 4.6 E 6 11 3 6 1024.1 1024.2 0.0
28/02:00pm 14.3 11.6 5.4 55 4.2 N 9 15 5 8 1024.1 1024.2 0.0
28/01:30pm 14.4 10.9 5.5 55 4.2 NNW 13 24 7 13 1024.3 1024.4 0.0
28/01:00pm 14.3 10.8 5.6 56 4.1 NNW 13 22 7 12 1024.3 1024.4 0.0
28/12:30pm 13.8 9.5 5.2 56 4.0 NNW 17 22 9 12 1024.4 1024.5 0.0
28/12:00pm 13.0 8.4 5.5 60 3.5 NNW 19 28 10 15 1024.7 1024.9 0.0
28/11:30am 12.6 8.0 5.5 62 3.3 NNW 19 28 10 15 1025.2 1025.4 0.0
28/11:00am 12.2 7.0 5.5 63 3.1 NNW 22 30 12 16 1025.2 1025.4 0.0
28/10:30am 12.3 7.5 5.4 63 3.2 NW 20 30 11 16 1025.3 1025.5 0.0
28/10:00am 12.1 8.5 5.1 62 3.2 WNW 13 22 7 12 1025.2 1025.4 0.0
28/09:30am 11.3 8.0 4.6 63 3.0 WSW 11 20 6 11 1025.0 1025.2 0.0
28/09:00am 9.8 5.7 4.6 70 2.3 WNW 15 26 8 14 1024.8 1025.0 0.4
28/08:30am 9.6 4.1 4.1 68 2.4 NW 22 32 12 17 1024.5 1024.6 0.4
28/08:00am 8.7 7.0 4.1 73 2.0 NE 2 7 1 4 1024.2 1024.3 0.4
28/07:30am 8.3 5.9 4.2 75 1.8 NNE 6 9 3 5 1024.0 1024.1 0.4
28/07:00am 8.3 6.3 4.2 75 1.8 NE 4 9 2 5 1023.6 1023.7 0.4
28/06:30am 8.6 5.6 4.0 73 2.0 SSE 9 11 5 6 1023.2 1023.3 0.4
28/06:00am 8.9 6.4 3.8 70 2.2 NNE 6 11 3 6 1022.8 1022.9 0.4
28/05:30am 9.1 5.9 3.3 67 2.5 NNE 9 24 5 13 1022.5 1022.6 0.4
28/05:00am 9.0 6.5 3.7 69 2.3 ENE 6 13 3 7 1022.3 1022.4 0.4
28/04:30am 9.7 6.0 2.6 61 3.0 ESE 11 15 6 8 1021.8 1021.9 0.4
28/04:00am 9.7 6.5 3.2 64 2.8 NW 9 20 5 11 1021.5 1021.6 0.4
28/03:30am 10.0 4.6 2.5 59 3.2 N 20 32 11 17 1021.1 1021.2 0.4
28/03:00am 10.1 4.7 2.3 58 3.3 NNW 20 30 11 16 1021.2 1021.3 0.4
28/02:30am 10.1 4.9 2.3 58 3.3 NNW 19 32 10 17 1021.4 1021.5 0.4
28/02:00am 9.7 4.3 2.4 60 3.1 NNW 20 33 11 18 1021.1 1021.2 0.4
28/01:30am 8.8 4.2 3.7 70 2.2 NNW 17 26 9 14 1021.1 1021.2 0.4
28/01:00am 8.8 3.6 3.7 70 2.2 NNW 20 33 11 18 1020.8 1020.9 0.4
28/12:30am 8.4 5.5 4.5 76 1.7 NW 9 17 5 9 1021.0 1021.1 0.4
28/12:00am 8.4 5.6 5.0 79 1.5 NW 9 13 5 7 1021.0 1021.1 0.4
 
Date/Time
EST
Tmp

°C
App
Tmp
°C
Dew
Point
°C
Rel
Hum
%
Delta-T

°C
Wind Press
QNH
hPa
Press
MSL
hPa
Rain
since
9 am
mm
Dir
 
Spd
km/h
Gust
km/h
Spd
kts
Gust
kts
27/11:30pm 9.0 6.5 4.7 74 1.9 NW 7 13 4 7 1021.3 1021.4 0.4
27/11:00pm 8.8 5.4 4.2 73 2.0 WNW 11 19 6 10 1021.0 1021.1 0.4
27/10:30pm 7.8 4.3 3.6 75 1.8 W 11 24 6 13 1020.8 1020.9 0.4
27/10:00pm 8.6 4.0 3.5 70 2.2 NNW 17 24 9 13 1020.5 1020.6 0.4
27/09:30pm 8.6 3.9 3.2 69 2.3 NNW 17 26 9 14 1020.3 1020.4 0.4
27/09:00pm 8.5 4.9 3.1 69 2.3 NW 11 17 6 9 1020.3 1020.4 0.4
27/08:30pm 8.5 4.9 2.8 67 2.4 NW 11 17 6 9 1019.9 1020.0 0.4
27/08:00pm 9.3 4.8 2.1 61 3.0 NW 15 22 8 12 1019.8 1019.9 0.4
27/07:30pm 9.4 4.5 2.0 60 3.1 NW 17 26 9 14 1019.5 1019.6 0.4
27/07:00pm 9.8 5.6 1.6 56 3.4 NW 13 22 7 12 1019.2 1019.3 0.4
27/06:30pm 10.0 5.4 1.6 56 3.5 WNW 15 24 8 13 1018.9 1019.0 0.4
27/06:00pm 10.1 5.2 2.0 57 3.4 WNW 17 35 9 19 1018.8 1018.9 0.4
27/05:30pm 10.2 5.3 1.9 56 3.5 W 17 30 9 16 1018.4 1018.5 0.4
27/05:00pm 10.0 6.7 2.5 59 3.2 WNW 9 19 5 10 1017.8 1017.9 0.4
27/04:30pm 10.2 7.4 3.0 61 3.1 W 7 13 4 7 1017.5 1017.6 0.4
27/04:00pm 10.5 7.2 2.3 57 3.5 SW 9 19 5 10 1017.2 1017.3 0.4
27/03:30pm 10.8 7.5 2.7 57 3.5 W 9 19 5 10 1016.9 1017.0 0.4
27/03:00pm 10.7 6.6 2.3 56 3.6 SW 13 24 7 13 1016.7 1016.8 0.4
27/02:30pm 10.4 7.1 2.4 57 3.4 SW 9 19 5 10 1016.3 1016.4 0.4
27/02:00pm 10.0 5.2 2.5 59 3.2 W 17 28 9 15 1015.9 1016.0 0.0
27/01:30pm 9.8 6.3 3.4 64 2.8 WNW 11 26 6 14 1015.6 1015.7 0.0
27/01:00pm 10.0 3.2 3.3 63 2.9 WSW 28 43 15 23 1015.7 1015.8 0.0
27/12:51pm 10.4 3.4 1.9 55 3.6 SW 28 50 15 27 1015.7 1015.8 0.0
27/12:30pm 10.4 4.8 1.3 53 3.8 SW 20 41 11 22 1015.5 1015.6 0.0
27/12:00pm 10.9 4.1 1.0 50 4.1 SW 26 39 14 21 1015.6 1015.7 0.0
27/11:30am 10.8 5.1 0.6 49 4.2 W 20 39 11 21 1015.7 1015.8 0.0
27/11:00am 8.4 3.4 1.6 62 2.8 N 17 28 9 15 1016.0 1016.1 0.0
27/10:30am 8.2 2.8 1.3 62 2.8 NNW 19 28 10 15 1016.0 1016.1 0.0
27/10:00am 7.5 3.2 0.7 62 2.7 NNE 13 17 7 9 1015.8 1015.9 0.0
27/09:30am 7.3 4.3 0.5 62 2.7 NNW 6 11 3 6 1015.3 1015.4 0.0
27/09:00am 7.6 1.9 0.3 60 2.9 WSW 20 35 11 19 1015.3 1015.4 4.6
27/08:30am 7.4 1.5 -0.6 57 3.1 SW 20 32 11 17 1014.9 1015.0 4.6
27/08:00am 6.6 0.0 -0.4 61 2.7 SW 24 39 13 21 1014.8 1014.9 4.6
27/07:30am 6.3 1.7 -1.1 59 2.8 SW 13 32 7 17 1014.4 1014.5 4.6
27/07:00am 5.9 2.5 -0.7 62 2.5 SW 7 15 4 8 1014.2 1014.3 4.6
27/06:30am 6.2 0.8 -1.3 58 2.8 WSW 17 32 9 17 1013.7 1013.8 4.6
27/06:00am 5.4 1.6 -1.0 63 2.4 S 9 17 5 9 1013.1 1013.2 4.6
27/05:30am 5.8 1.5 -1.5 59 2.7 SE 11 24 6 13 1012.5 1012.6 4.6
27/05:00am 5.7 1.0 -1.6 59 2.7 WSW 13 35 7 19 1011.8 1011.9 4.6
27/04:36am 5.6 0.5 -2.1 57 2.8 WSW 15 50 8 27 1011.3 1011.4 4.6
27/04:30am 5.6 1.6 -2.1 57 2.8 WSW 9 26 5 14 1011.2 1011.3 4.6
27/04:00am 5.7 0.3 -1.6 59 2.7 SSE 17 26 9 14 1010.7 1010.8 4.6
27/03:30am 5.5 -0.5 -1.5 60 2.6 WSW 20 48 11 26 1009.9 1010.1 4.6
27/03:07am 5.7 -1.8 -1.3 61 2.6 WSW 28 50 15 27 1010.1 1010.3 4.6
27/03:00am 5.5 -0.4 -0.9 63 2.4 W 20 35 11 19 1010.0 1010.2 4.6
27/02:30am 5.8 -0.6 -1.8 58 2.8 W 22 39 12 21 1009.9 1010.1 4.6
27/02:00am 5.8 1.1 -1.8 58 2.8 WSW 13 35 7 19 1009.2 1009.4 4.6
27/01:30am 5.9 2.0 -1.3 60 2.7 NW 9 28 5 15 1008.6 1008.8 4.6
27/01:00am 6.6 -0.7 -2.7 51 3.4 NW 26 48 14 26 1007.9 1008.0 4.6
27/12:47am 6.7 -2.0 -3.0 50 3.5 WSW 33 57 18 31 1007.6 1007.7 4.6
27/12:46am 6.6 -2.4 -3.1 50 3.5 WSW 35 57 19 31 1007.6 1007.7 4.6
27/12:43am 6.6 -1.4 -2.7 51 3.4 WSW 30 57 16 31 1007.4 1007.5 4.6
27/12:40am 6.7 -1.0 -3.3 49 3.6 WSW 28 57 15 31 1007.2 1007.3 4.6
27/12:30am 6.8 -0.2 -3.5 48 3.7 W 24 52 13 28 1007.3 1007.4 4.6
27/12:00am 6.8 -1.2 -2.1 53 3.3 W 30 57 16 31 1006.8 1006.9 4.6
 
Date/Time
EST
Tmp

°C
App
Tmp
°C
Dew
Point
°C
Rel
Hum
%
Delta-T

°C
Wind Press
QNH
hPa
Press
MSL
hPa
Rain
since
9 am
mm
Dir
 
Spd
km/h
Gust
km/h
Spd
kts
Gust
kts
26/11:57pm 6.8 -1.2 -2.1 53 3.3 WSW 30 56 16 30 1006.5 1006.6 4.6
26/11:55pm 7.0 -1.0 -2.5 51 3.5 WSW 30 56 16 30 1006.4 1006.5 4.6
26/11:30pm 6.5 -1.9 -1.2 58 2.9 SW 33 61 18 33 1005.5 1005.6 4.6
26/11:00pm 6.8 -3.8 -1.7 54 3.2 SW 44 70 24 38 1003.7 1003.8 4.6
26/10:30pm 6.9 -3.0 -0.6 59 2.9 SW 41 74 22 40 1003.1 1003.2 4.6
26/10:07pm 6.5 -1.6 1.3 69 2.1 SW 33 76 18 41 1003.2 1003.3 4.4
26/10:00pm 6.4 -1.4 1.5 71 2.0 SW 32 50 17 27 1003.2 1003.3 4.4
26/09:32pm 6.6 -0.4 2.0 72 1.9 SW 28 50 15 27 1002.7 1002.8 4.2
26/09:30pm 6.7 0.1 1.8 71 2.0 SW 26 43 14 23 1002.7 1002.8 4.2
26/09:14pm 6.8 -0.2 1.9 71 2.0 SW 28 44 15 24 1002.5 1002.6 4.2
26/09:00pm 6.6 0.5 2.8 77 1.6 SW 24 41 13 22 1002.0 1002.1 3.8
26/08:30pm 7.6 -1.2 1.5 65 2.5 WSW 37 63 20 34 1000.5 1000.6 3.6
26/08:10pm 7.6 -2.5 1.5 65 2.5 SW 44 72 24 39 999.3 999.4 3.6
26/08:07pm 7.7 -1.5 1.4 64 2.6 SW 39 72 21 39 999.2 999.3 3.6
26/08:03pm 7.7 -0.1 1.4 64 2.6 SW 32 72 17 39 999.3 999.4 3.6
26/08:01pm 7.6 0.6 1.8 67 2.4 SW 28 54 15 29 999.4 999.5 3.6
26/08:00pm 7.6 1.0 1.8 67 2.4 SW 26 54 14 29 999.4 999.5 3.6
26/07:30pm 6.7 3.6 3.4 79 1.4 NE 9 20 5 11 999.4 999.5 3.4
26/07:00pm 7.1 2.4 3.1 76 1.7 WSW 17 33 9 18 998.2 998.3 3.4
26/06:30pm 7.0 3.6 4.0 81 1.3 WSW 11 22 6 12 997.3 997.4 3.0
26/06:00pm 8.1 4.4 2.1 66 2.5 NE 11 20 6 11 997.0 997.1 1.6
26/05:53pm 7.8 3.8 2.6 69 2.2 E 13 30 7 16 996.4 996.5 1.4
26/05:30pm 9.0 3.1 -0.6 51 3.8 SW 20 43 11 23 994.4 994.5 1.4
26/05:07pm 8.9 2.6 -0.7 51 3.8 WNW 22 63 12 34 993.2 993.3 1.4
26/05:00pm 7.6 2.2 1.5 65 2.5 NW 19 33 10 18 993.0 993.1 1.4
26/04:30pm 7.6 1.1 2.6 70 2.1 NW 26 44 14 24 993.9 994.0 1.4
26/04:00pm 8.9 2.6 1.5 60 3.1 NNW 24 37 13 20 993.4 993.5 0.6
26/03:30pm 9.5 2.4 1.1 56 3.5 NNW 28 43 15 23 992.7 992.8 0.6
26/03:01pm 9.0 1.1 1.0 57 3.3 NNW 32 56 17 30 991.9 991.9 0.6
26/03:00pm 9.1 1.2 1.2 57 3.3 NNW 32 48 17 26 991.9 991.9 0.6
26/02:52pm 9.2 2.0 1.0 56 3.4 NNW 28 50 15 27 991.8 991.8 0.6
26/02:30pm 8.7 2.5 2.1 63 2.8 NNW 24 37 13 20 991.8 991.8 0.6
26/02:00pm 7.9 0.6 2.2 67 2.4 N 30 50 16 27 991.5 991.5 0.6
26/01:40pm 7.8 0.9 2.6 69 2.2 NNW 28 50 15 27 991.9 991.9 0.4
26/01:30pm 7.9 1.0 2.7 69 2.2 NNW 28 46 15 25 991.8 991.8 0.4
26/01:00pm 9.0 -0.3 0.7 56 3.4 NNW 39 61 21 33 990.1 990.1 0.4
26/12:30pm 9.1 -1.7 -0.4 51 3.8 NNW 46 72 25 39 990.1 990.1 0.4
26/12:00pm 8.9 -1.0 -0.7 51 3.8 NNW 41 67 22 36 990.6 990.6 0.4
26/11:50am 9.1 -0.8 -0.7 50 3.8 NNW 41 59 22 32 990.6 990.6 0.4
26/11:47am 9.1 -1.4 -1.0 49 3.9 NNW 44 72 24 39 990.8 990.8 0.4
26/11:38am 8.8 -2.1 -1.5 48 4.0 NNW 46 83 25 45 990.8 990.8 0.4
26/11:31am 9.0 -0.1 -0.5 51 3.7 NW 37 69 20 37 991.1 991.1 0.4
26/11:30am 9.0 0.2 -0.9 50 3.9 NW 35 57 19 31 991.2 991.2 0.4
26/11:00am 8.8 -2.8 -0.8 51 3.8 NW 50 80 27 43 990.6 990.6 0.4
26/10:30am 8.8 -2.8 -0.8 51 3.7 NW 50 76 27 41 990.6 990.6 0.4
26/10:00am 8.2 -2.2 -0.1 56 3.3 NW 44 80 24 43 991.3 991.3 0.4
26/09:32am 7.5 -2.7 -0.1 58 3.0 NW 43 91 23 49 992.4 992.4 0.4
26/09:30am 7.8 -2.1 -0.6 55 3.3 NW 41 63 22 34 992.6 992.7 0.0
26/09:20am 7.9 -2.5 -0.5 55 3.3 NNW 44 78 24 42 992.5 992.6 0.0
26/09:05am 8.6 -0.6 -1.1 50 3.7 NW 37 56 20 30 992.6 992.7 0.0
26/09:00am 8.3 -0.4 -0.6 53 3.5 NNW 35 50 19 27 992.9 993.0 3.4
26/08:53am 8.0 -0.1 -0.3 56 3.2 NNW 32 50 17 27 992.8 992.9 3.4
26/08:30am 7.3 -0.4 0.0 60 2.9 NNW 30 46 16 25 992.5 992.6 3.4
26/08:07am 6.8 -0.5 0.2 63 2.6 NW 28 46 15 25 992.7 992.8 3.4
26/08:00am 6.3 0.0 1.4 71 2.0 NNW 24 37 13 20 992.8 992.9 3.4
26/07:30am 6.3 -2.8 1.6 72 1.9 NW 39 63 21 34 993.5 993.6 3.2
26/07:06am 7.1 -0.2 0.3 62 2.7 NW 28 50 15 27 993.7 993.8 2.6
26/07:00am 6.9 0.9 1.2 67 2.3 NW 22 37 12 20 993.8 993.9 2.4
26/06:45am 6.7 -0.4 1.3 68 2.2 NW 28 50 15 27 993.1 993.2 2.4
26/06:30am 6.5 1.0 1.9 72 1.9 NNW 20 32 11 17 993.4 993.5 2.2
26/06:00am 6.3 0.8 1.9 73 1.8 NNW 20 32 11 17 993.1 993.2 2.0
26/05:30am 6.6 -0.9 1.4 69 2.1 NNW 30 50 16 27 993.2 993.3 1.8
26/05:00am 7.7 -1.2 0.8 61 2.8 NNW 37 63 20 34 993.0 993.1 1.8
26/04:30am 7.9 -0.8 -0.5 55 3.3 NNW 35 57 19 31 992.2 992.2 1.2
26/04:00am 8.3 0.5 -0.9 52 3.6 NW 30 61 16 33 993.0 993.1 1.2
26/03:58am 8.4 0.9 -1.1 51 3.7 NW 28 61 15 33 992.9 993.0 1.2
26/03:30am 7.9 1.5 0.8 61 2.9 NNW 24 35 13 19 993.4 993.5 1.2
26/03:26am 7.9 0.8 1.1 62 2.8 NNW 28 39 15 21 993.5 993.6 1.2
26/03:00am 7.4 2.9 2.1 69 2.2 NW 15 20 8 11 993.8 993.9 1.2
26/02:30am 7.7 3.8 3.5 75 1.8 NW 13 24 7 13 994.1 994.2 1.2
26/02:00am 7.6 3.8 3.7 76 1.7 NNW 13 20 7 11 994.1 994.2 1.2
26/01:30am 8.1 4.0 4.5 78 1.6 NNW 15 22 8 12 994.5 994.6 1.2
26/01:00am 8.2 2.4 4.4 77 1.7 NW 24 39 13 21 995.0 995.1 1.2
26/12:30am 8.4 3.4 4.6 77 1.7 NW 20 32 11 17 995.3 995.4 1.0
26/12:11am 9.1 2.5 4.4 72 2.1 WNW 28 48 15 26 995.0 995.1 0.4
26/12:00am 8.4 3.5 4.1 74 1.9 NW 19 39 10 21 995.0 995.1 0.4
 
Date/Time
EST
Tmp

°C
App
Tmp
°C
Dew
Point
°C
Rel
Hum
%
Delta-T

°C
Wind Press
QNH
hPa
Press
MSL
hPa
Rain
since
9 am
mm
Dir
 
Spd
km/h
Gust
km/h
Spd
kts
Gust
kts
25/11:30pm 9.5 3.6 2.0 59 3.1 NNW 22 32 12 17 994.5 994.6 0.2
25/11:00pm 9.2 2.9 1.3 58 3.3 NNW 24 33 13 18 994.9 995.0 0.2
25/10:30pm 9.6 2.4 0.6 53 3.7 NNW 28 41 15 22 995.5 995.6 0.2
25/10:00pm 8.8 3.4 1.0 58 3.2 N 19 28 10 15 996.5 996.6 0.2
25/09:30pm 8.8 3.6 0.4 55 3.4 N 17 24 9 13 997.3 997.4 0.2
25/09:00pm 9.0 3.6 1.3 58 3.2 N 19 30 10 16 998.1 998.2 0.2

Latest Capital City Observations: Canberra | Sydney | Melbourne | Brisbane | Adelaide | Perth | Hobart | Darwin

Other Formats:

Comma delimited format used in spreadsheet applications
http://www.bom.gov.au/fwo/IDT60901/IDT60901.94970.axf

JavaScript Object Notation format (JSON) in row-major order
http://www.bom.gov.au/fwo/IDT60901/IDT60901.94970.json